Union Chapel, Texas
Current Conditions -  °F | °C
As of 12:53 AM on Friday 31 Oct 2014 (Local Time) from KTXK Reporting Station
Clear Clear  
Wind Chill: 58°   Ceiling: Unl
Heat Index: 58°   Visibility: 10mi
Dew Point: 46°   Wind: 7mph
Humidity: 65%   Direction: 310°NW
Pressure: 30.1"   Gusts: NA
Location:  33.1865°N, 94.3585°W
Report Text: KTXK 310553Z AUTO 31006KT 10SM CLR 14/08 A3010 RMK AO2 SLP189 T01440078 10183 20122 402330067 51005
Loading
Personal Weather Stations






























Interactive Weather Map
Tropical Storm Tracking
New forecast layout! Learn more

10-Day Weather Forecast

Advertisements
Track Severe Weather on mobile